sensor_id;sensor_type;location;lat;lon;timestamp;P1;durP1;ratioP1;P2;durP2;ratioP2
65759;SDS011;52496;51.082;5.066;2022-09-03T00:02:16;4.82;;;2.55;;
65759;SDS011;52496;51.082;5.066;2022-09-03T00:07:50;5.20;;;2.83;;
65759;SDS011;52496;51.082;5.066;2022-09-03T00:10:47;4.70;;;2.60;;
65759;SDS011;52496;51.082;5.066;2022-09-03T00:13:26;5.68;;;2.90;;
65759;SDS011;52496;51.082;5.066;2022-09-03T00:16:11;4.07;;;2.60;;
65759;SDS011;52496;51.082;5.066;2022-09-03T00:18:45;6.78;;;3.13;;
65759;SDS011;52496;51.082;5.066;2022-09-03T00:21:27;5.13;;;3.10;;
65759;SDS011;52496;51.082;5.066;2022-09-03T00:24:06;4.57;;;2.75;;
65759;SDS011;52496;51.082;5.066;2022-09-03T00:26:39;7.38;;;2.67;;
65759;SDS011;52496;51.082;5.066;2022-09-03T00:29:15;6.80;;;2.90;;
65759;SDS011;52496;51.082;5.066;2022-09-03T00:31:57;5.97;;;2.88;;
65759;SDS011;52496;51.082;5.066;2022-09-03T00:34:37;4.90;;;2.70;;
65759;SDS011;52496;51.082;5.066;2022-09-03T00:37:10;6.35;;;2.60;;
65759;SDS011;52496;51.082;5.066;2022-09-03T00:39:41;6.88;;;3.10;;
65759;SDS011;52496;51.082;5.066;2022-09-03T00:42:31;7.53;;;3.17;;
65759;SDS011;52496;51.082;5.066;2022-09-03T00:48:27;5.33;;;3.20;;
65759;SDS011;52496;51.082;5.066;2022-09-03T00:51:18;5.43;;;2.72;;
65759;SDS011;52496;51.082;5.066;2022-09-03T00:56:35;6.88;;;3.30;;
65759;SDS011;52496;51.082;5.066;2022-09-03T00:59:20;4.57;;;3.10;;
65759;SDS011;52496;51.082;5.066;2022-09-03T01:28:23;8.52;;;3.33;;
65759;SDS011;52496;51.082;5.066;2022-09-03T01:31:06;5.80;;;3.22;;
65759;SDS011;52496;51.082;5.066;2022-09-03T01:40:04;6.45;;;3.13;;
65759;SDS011;52496;51.082;5.066;2022-09-03T01:45:53;6.05;;;3.60;;
65759;SDS011;52496;51.082;5.066;2022-09-03T01:57:00;4.78;;;3.30;;
65759;SDS011;52496;51.082;5.066;2022-09-03T02:00:14;5.30;;;3.50;;
65759;SDS011;52496;51.082;5.066;2022-09-03T02:02:49;7.03;;;3.15;;
65759;SDS011;52496;51.082;5.066;2022-09-03T02:05:22;5.15;;;3.20;;
65759;SDS011;52496;51.082;5.066;2022-09-03T02:07:56;6.57;;;3.65;;
65759;SDS011;52496;51.082;5.066;2022-09-03T02:10:42;6.85;;;3.10;;
65759;SDS011;52496;51.082;5.066;2022-09-03T02:13:17;6.05;;;3.65;;
65759;SDS011;52496;51.082;5.066;2022-09-03T02:15:55;4.72;;;3.08;;
65759;SDS011;52496;51.082;5.066;2022-09-03T02:18:29;5.07;;;2.92;;
65759;SDS011;52496;51.082;5.066;2022-09-03T02:21:05;5.28;;;3.40;;
65759;SDS011;52496;51.082;5.066;2022-09-03T02:23:37;6.75;;;2.90;;
65759;SDS011;52496;51.082;5.066;2022-09-03T02:26:10;7.60;;;3.30;;
65759;SDS011;52496;51.082;5.066;2022-09-03T02:28:42;10.25;;;3.70;;
65759;SDS011;52496;51.082;5.066;2022-09-03T02:31:13;4.55;;;3.08;;
65759;SDS011;52496;51.082;5.066;2022-09-03T02:33:45;4.30;;;2.95;;
65759;SDS011;52496;51.082;5.066;2022-09-03T02:36:19;6.05;;;3.30;;
65759;SDS011;52496;51.082;5.066;2022-09-03T02:38:54;6.70;;;3.35;;
65759;SDS011;52496;51.082;5.066;2022-09-03T02:41:25;7.53;;;3.00;;
65759;SDS011;52496;51.082;5.066;2022-09-03T02:46:38;7.47;;;3.20;;
65759;SDS011;52496;51.082;5.066;2022-09-03T02:49:21;7.20;;;3.13;;
65759;SDS011;52496;51.082;5.066;2022-09-03T02:51:55;6.38;;;3.35;;
65759;SDS011;52496;51.082;5.066;2022-09-03T02:54:30;5.90;;;3.40;;
65759;SDS011;52496;51.082;5.066;2022-09-03T02:57:02;5.43;;;3.15;;
65759;SDS011;52496;51.082;5.066;2022-09-03T02:59:32;5.13;;;3.10;;
65759;SDS011;52496;51.082;5.066;2022-09-03T03:02:04;7.20;;;3.42;;
65759;SDS011;52496;51.082;5.066;2022-09-03T03:04:34;5.85;;;3.10;;
65759;SDS011;52496;51.082;5.066;2022-09-03T03:07:05;5.38;;;2.80;;
65759;SDS011;52496;51.082;5.066;2022-09-03T03:09:36;6.18;;;3.00;;
65759;SDS011;52496;51.082;5.066;2022-09-03T03:12:06;9.93;;;3.03;;
65759;SDS011;52496;51.082;5.066;2022-09-03T03:14:39;7.55;;;3.35;;
65759;SDS011;52496;51.082;5.066;2022-09-03T03:17:09;6.30;;;3.03;;
65759;SDS011;52496;51.082;5.066;2022-09-03T03:19:40;6.32;;;3.33;;
65759;SDS011;52496;51.082;5.066;2022-09-03T03:22:10;9.30;;;3.67;;
65759;SDS011;52496;51.082;5.066;2022-09-03T03:24:41;6.15;;;3.30;;
65759;SDS011;52496;51.082;5.066;2022-09-03T03:27:11;6.65;;;2.97;;
65759;SDS011;52496;51.082;5.066;2022-09-03T03:29:43;5.03;;;3.38;;
65759;SDS011;52496;51.082;5.066;2022-09-03T03:32:14;5.88;;;3.10;;
65759;SDS011;52496;51.082;5.066;2022-09-03T03:34:45;7.68;;;3.53;;
65759;SDS011;52496;51.082;5.066;2022-09-03T03:37:15;6.55;;;3.28;;
65759;SDS011;52496;51.082;5.066;2022-09-03T03:39:46;5.63;;;2.90;;
65759;SDS011;52496;51.082;5.066;2022-09-03T03:42:16;4.78;;;2.78;;
65759;SDS011;52496;51.082;5.066;2022-09-03T03:44:47;4.63;;;2.78;;
65759;SDS011;52496;51.082;5.066;2022-09-03T03:47:17;6.28;;;3.22;;
65759;SDS011;52496;51.082;5.066;2022-09-03T03:49:47;7.68;;;3.00;;
65759;SDS011;52496;51.082;5.066;2022-09-03T03:52:18;5.82;;;2.80;;
65759;SDS011;52496;51.082;5.066;2022-09-03T03:54:48;6.28;;;2.88;;
65759;SDS011;52496;51.082;5.066;2022-09-03T03:57:19;5.03;;;3.00;;
65759;SDS011;52496;51.082;5.066;2022-09-03T03:59:50;4.80;;;3.03;;
65759;SDS011;52496;51.082;5.066;2022-09-03T04:02:20;4.68;;;2.90;;
65759;SDS011;52496;51.082;5.066;2022-09-03T04:04:51;5.57;;;2.80;;
65759;SDS011;52496;51.082;5.066;2022-09-03T04:07:22;4.35;;;2.92;;
65759;SDS011;52496;51.082;5.066;2022-09-03T04:09:52;6.60;;;3.08;;
65759;SDS011;52496;51.082;5.066;2022-09-03T04:12:22;4.90;;;3.15;;
65759;SDS011;52496;51.082;5.066;2022-09-03T04:14:53;6.80;;;3.10;;
65759;SDS011;52496;51.082;5.066;2022-09-03T04:17:23;6.55;;;3.17;;
65759;SDS011;52496;51.082;5.066;2022-09-03T04:19:54;7.72;;;3.42;;
65759;SDS011;52496;51.082;5.066;2022-09-03T04:22:24;6.45;;;3.03;;
65759;SDS011;52496;51.082;5.066;2022-09-03T04:24:56;8.18;;;2.92;;
65759;SDS011;52496;51.082;5.066;2022-09-03T04:27:27;6.10;;;2.92;;
65759;SDS011;52496;51.082;5.066;2022-09-03T04:29:57;5.97;;;2.90;;
65759;SDS011;52496;51.082;5.066;2022-09-03T04:32:28;5.43;;;2.97;;
65759;SDS011;52496;51.082;5.066;2022-09-03T04:35:17;4.60;;;3.08;;
65759;SDS011;52496;51.082;5.066;2022-09-03T04:37:47;6.55;;;3.22;;
65759;SDS011;52496;51.082;5.066;2022-09-03T04:40:18;5.20;;;3.00;;
65759;SDS011;52496;51.082;5.066;2022-09-03T04:42:49;8.57;;;3.67;;
65759;SDS011;52496;51.082;5.066;2022-09-03T04:45:19;8.68;;;3.70;;
65759;SDS011;52496;51.082;5.066;2022-09-03T04:50:27;6.32;;;3.22;;
65759;SDS011;52496;51.082;5.066;2022-09-03T04:53:00;5.72;;;3.28;;
65759;SDS011;52496;51.082;5.066;2022-09-03T04:55:34;6.70;;;3.50;;
65759;SDS011;52496;51.082;5.066;2022-09-03T04:58:06;7.43;;;3.47;;
65759;SDS011;52496;51.082;5.066;2022-09-03T05:00:37;6.10;;;3.30;;
65759;SDS011;52496;51.082;5.066;2022-09-03T05:03:07;6.22;;;3.85;;
65759;SDS011;52496;51.082;5.066;2022-09-03T05:05:38;7.72;;;3.35;;
65759;SDS011;52496;51.082;5.066;2022-09-03T05:08:08;6.50;;;3.13;;
65759;SDS011;52496;51.082;5.066;2022-09-03T05:10:40;8.77;;;3.95;;
65759;SDS011;52496;51.082;5.066;2022-09-03T05:13:10;7.38;;;3.20;;
65759;SDS011;52496;51.082;5.066;2022-09-03T05:15:41;7.43;;;4.00;;
65759;SDS011;52496;51.082;5.066;2022-09-03T05:18:13;8.77;;;3.70;;
65759;SDS011;52496;51.082;5.066;2022-09-03T05:20:43;5.57;;;3.42;;
65759;SDS011;52496;51.082;5.066;2022-09-03T05:23:14;7.10;;;3.30;;
65759;SDS011;52496;51.082;5.066;2022-09-03T05:25:53;6.95;;;3.42;;
65759;SDS011;52496;51.082;5.066;2022-09-03T05:28:26;9.25;;;3.97;;
65759;SDS011;52496;51.082;5.066;2022-09-03T05:30:59;8.63;;;3.40;;
65759;SDS011;52496;51.082;5.066;2022-09-03T05:33:38;5.05;;;3.45;;
65759;SDS011;52496;51.082;5.066;2022-09-03T05:36:14;11.80;;;3.60;;
65759;SDS011;52496;51.082;5.066;2022-09-03T05:38:47;7.95;;;3.67;;
65759;SDS011;52496;51.082;5.066;2022-09-03T05:41:18;6.57;;;3.42;;
65759;SDS011;52496;51.082;5.066;2022-09-03T05:43:51;8.10;;;3.50;;
65759;SDS011;52496;51.082;5.066;2022-09-03T05:46:29;6.40;;;3.40;;
65759;SDS011;52496;51.082;5.066;2022-09-03T05:49:01;5.95;;;3.40;;
65759;SDS011;52496;51.082;5.066;2022-09-03T05:51:34;10.55;;;3.65;;
65759;SDS011;52496;51.082;5.066;2022-09-03T05:54:06;6.18;;;3.45;;
65759;SDS011;52496;51.082;5.066;2022-09-03T05:56:37;8.25;;;4.55;;
65759;SDS011;52496;51.082;5.066;2022-09-03T05:59:11;8.10;;;3.10;;
65759;SDS011;52496;51.082;5.066;2022-09-03T06:01:43;7.57;;;3.17;;
65759;SDS011;52496;51.082;5.066;2022-09-03T06:04:15;14.60;;;3.53;;
65759;SDS011;52496;51.082;5.066;2022-09-03T06:06:46;14.15;;;3.53;;
65759;SDS011;52496;51.082;5.066;2022-09-03T06:09:18;8.20;;;3.33;;
65759;SDS011;52496;51.082;5.066;2022-09-03T06:11:50;6.40;;;3.20;;
65759;SDS011;52496;51.082;5.066;2022-09-03T06:14:20;5.38;;;2.85;;
65759;SDS011;52496;51.082;5.066;2022-09-03T06:16:51;5.78;;;2.80;;
65759;SDS011;52496;51.082;5.066;2022-09-03T06:19:23;5.85;;;2.97;;
65759;SDS011;52496;51.082;5.066;2022-09-03T06:21:54;5.80;;;2.63;;
65759;SDS011;52496;51.082;5.066;2022-09-03T06:24:24;7.40;;;2.90;;
65759;SDS011;52496;51.082;5.066;2022-09-03T06:26:56;6.57;;;2.63;;
65759;SDS011;52496;51.082;5.066;2022-09-03T06:29:27;5.47;;;2.30;;
65759;SDS011;52496;51.082;5.066;2022-09-03T06:31:58;6.97;;;2.60;;
65759;SDS011;52496;51.082;5.066;2022-09-03T06:34:29;6.72;;;2.60;;
65759;SDS011;52496;51.082;5.066;2022-09-03T06:36:59;5.97;;;2.58;;
65759;SDS011;52496;51.082;5.066;2022-09-03T06:39:30;5.43;;;2.63;;
65759;SDS011;52496;51.082;5.066;2022-09-03T06:42:00;6.70;;;2.67;;
65759;SDS011;52496;51.082;5.066;2022-09-03T06:44:31;5.07;;;2.67;;
65759;SDS011;52496;51.082;5.066;2022-09-03T06:47:01;5.75;;;2.45;;
65759;SDS011;52496;51.082;5.066;2022-09-03T06:49:32;5.28;;;2.83;;
65759;SDS011;52496;51.082;5.066;2022-09-03T06:52:02;8.20;;;2.63;;
65759;SDS011;52496;51.082;5.066;2022-09-03T06:54:33;5.07;;;2.47;;
65759;SDS011;52496;51.082;5.066;2022-09-03T06:57:03;4.50;;;2.53;;
65759;SDS011;52496;51.082;5.066;2022-09-03T06:59:34;8.05;;;3.90;;
65759;SDS011;52496;51.082;5.066;2022-09-03T07:02:04;4.68;;;2.40;;
65759;SDS011;52496;51.082;5.066;2022-09-03T07:04:36;4.28;;;2.45;;
65759;SDS011;52496;51.082;5.066;2022-09-03T07:07:06;8.57;;;2.85;;
65759;SDS011;52496;51.082;5.066;2022-09-03T07:09:42;5.25;;;3.00;;
65759;SDS011;52496;51.082;5.066;2022-09-03T07:12:12;12.35;;;2.88;;
65759;SDS011;52496;51.082;5.066;2022-09-03T07:14:45;6.00;;;2.53;;
65759;SDS011;52496;51.082;5.066;2022-09-03T07:17:16;4.43;;;2.40;;
65759;SDS011;52496;51.082;5.066;2022-09-03T07:19:46;6.03;;;2.53;;
65759;SDS011;52496;51.082;5.066;2022-09-03T07:22:17;7.32;;;2.78;;
65759;SDS011;52496;51.082;5.066;2022-09-03T07:24:47;5.13;;;2.60;;
65759;SDS011;52496;51.082;5.066;2022-09-03T07:27:20;7.80;;;2.58;;
65759;SDS011;52496;51.082;5.066;2022-09-03T07:29:51;6.07;;;2.47;;
65759;SDS011;52496;51.082;5.066;2022-09-03T07:32:21;5.60;;;2.20;;
65759;SDS011;52496;51.082;5.066;2022-09-03T07:34:52;4.82;;;2.60;;
65759;SDS011;52496;51.082;5.066;2022-09-03T07:37:22;5.80;;;3.03;;
65759;SDS011;52496;51.082;5.066;2022-09-03T07:39:53;5.25;;;2.80;;
65759;SDS011;52496;51.082;5.066;2022-09-03T07:42:23;5.35;;;2.60;;
65759;SDS011;52496;51.082;5.066;2022-09-03T07:44:56;4.80;;;2.38;;
65759;SDS011;52496;51.082;5.066;2022-09-03T07:47:27;5.95;;;2.20;;
65759;SDS011;52496;51.082;5.066;2022-09-03T07:49:58;6.95;;;2.53;;
65759;SDS011;52496;51.082;5.066;2022-09-03T07:52:29;5.88;;;2.47;;
65759;SDS011;52496;51.082;5.066;2022-09-03T07:55:00;5.28;;;2.22;;
65759;SDS011;52496;51.082;5.066;2022-09-03T07:57:31;4.60;;;2.38;;
65759;SDS011;52496;51.082;5.066;2022-09-03T08:00:02;6.60;;;2.33;;
65759;SDS011;52496;51.082;5.066;2022-09-03T08:02:33;4.07;;;2.40;;
65759;SDS011;52496;51.082;5.066;2022-09-03T08:05:03;3.65;;;2.00;;
65759;SDS011;52496;51.082;5.066;2022-09-03T08:07:34;7.70;;;2.50;;
65759;SDS011;52496;51.082;5.066;2022-09-03T08:10:04;6.00;;;2.40;;
65759;SDS011;52496;51.082;5.066;2022-09-03T08:12:35;4.18;;;2.20;;
65759;SDS011;52496;51.082;5.066;2022-09-03T08:15:06;4.35;;;2.35;;
65759;SDS011;52496;51.082;5.066;2022-09-03T08:17:42;3.90;;;2.33;;
65759;SDS011;52496;51.082;5.066;2022-09-03T08:20:13;5.30;;;2.35;;
65759;SDS011;52496;51.082;5.066;2022-09-03T08:22:44;6.30;;;2.38;;
65759;SDS011;52496;51.082;5.066;2022-09-03T08:25:14;4.25;;;2.40;;
65759;SDS011;52496;51.082;5.066;2022-09-03T08:27:44;4.03;;;2.30;;
65759;SDS011;52496;51.082;5.066;2022-09-03T08:30:15;5.32;;;2.30;;
65759;SDS011;52496;51.082;5.066;2022-09-03T08:32:46;3.45;;;2.17;;
65759;SDS011;52496;51.082;5.066;2022-09-03T08:35:17;3.88;;;2.30;;
65759;SDS011;52496;51.082;5.066;2022-09-03T08:37:47;3.90;;;2.33;;
65759;SDS011;52496;51.082;5.066;2022-09-03T08:40:20;3.42;;;2.08;;
65759;SDS011;52496;51.082;5.066;2022-09-03T08:45:41;4.97;;;2.30;;
65759;SDS011;52496;51.082;5.066;2022-09-03T08:48:13;3.53;;;2.28;;
65759;SDS011;52496;51.082;5.066;2022-09-03T08:50:51;6.43;;;2.50;;
65759;SDS011;52496;51.082;5.066;2022-09-03T08:56:13;4.28;;;2.50;;
65759;SDS011;52496;51.082;5.066;2022-09-03T08:58:50;3.72;;;2.42;;
65759;SDS011;52496;51.082;5.066;2022-09-03T09:01:24;3.28;;;2.30;;
65759;SDS011;52496;51.082;5.066;2022-09-03T09:04:18;5.97;;;2.42;;
65759;SDS011;52496;51.082;5.066;2022-09-03T09:07:11;5.15;;;2.63;;
65759;SDS011;52496;51.082;5.066;2022-09-03T09:10:02;6.28;;;2.40;;
65759;SDS011;52496;51.082;5.066;2022-09-03T09:21:27;4.53;;;2.47;;
65759;SDS011;52496;51.082;5.066;2022-09-03T09:24:03;4.90;;;2.80;;
65759;SDS011;52496;51.082;5.066;2022-09-03T09:26:42;8.30;;;2.70;;
65759;SDS011;52496;51.082;5.066;2022-09-03T09:29:12;7.72;;;2.53;;
65759;SDS011;52496;51.082;5.066;2022-09-03T09:31:44;7.68;;;2.90;;
65759;SDS011;52496;51.082;5.066;2022-09-03T09:34:15;4.32;;;2.70;;
65759;SDS011;52496;51.082;5.066;2022-09-03T09:39:23;5.13;;;2.80;;
65759;SDS011;52496;51.082;5.066;2022-09-03T09:41:57;5.68;;;2.70;;
65759;SDS011;52496;51.082;5.066;2022-09-03T09:44:34;4.90;;;2.40;;
65759;SDS011;52496;51.082;5.066;2022-09-03T09:47:12;6.53;;;3.10;;
65759;SDS011;52496;51.082;5.066;2022-09-03T09:50:01;4.90;;;2.83;;
65759;SDS011;52496;51.082;5.066;2022-09-03T09:52:31;6.35;;;2.90;;
65759;SDS011;52496;51.082;5.066;2022-09-03T09:55:09;6.60;;;2.70;;
65759;SDS011;52496;51.082;5.066;2022-09-03T09:57:44;4.65;;;2.72;;
65759;SDS011;52496;51.082;5.066;2022-09-03T10:00:15;4.55;;;2.95;;
65759;SDS011;52496;51.082;5.066;2022-09-03T10:02:48;6.72;;;2.80;;
65759;SDS011;52496;51.082;5.066;2022-09-03T10:05:22;4.45;;;2.33;;
65759;SDS011;52496;51.082;5.066;2022-09-03T10:10:31;5.90;;;2.70;;
65759;SDS011;52496;51.082;5.066;2022-09-03T10:13:11;6.32;;;2.80;;
65759;SDS011;52496;51.082;5.066;2022-09-03T10:15:49;7.85;;;2.78;;
65759;SDS011;52496;51.082;5.066;2022-09-03T10:27:21;4.95;;;2.67;;
65759;SDS011;52496;51.082;5.066;2022-09-03T10:29:52;5.43;;;2.53;;
65759;SDS011;52496;51.082;5.066;2022-09-03T10:37:43;7.82;;;2.83;;
65759;SDS011;52496;51.082;5.066;2022-09-03T10:45:54;3.85;;;2.60;;
65759;SDS011;52496;51.082;5.066;2022-09-03T10:52:30;6.82;;;2.80;;
65759;SDS011;52496;51.082;5.066;2022-09-03T10:57:45;5.82;;;2.40;;
65759;SDS011;52496;51.082;5.066;2022-09-03T11:00:16;5.13;;;2.58;;
65759;SDS011;52496;51.082;5.066;2022-09-03T11:08:27;4.55;;;2.45;;
65759;SDS011;52496;51.082;5.066;2022-09-03T11:11:19;5.70;;;2.72;;
65759;SDS011;52496;51.082;5.066;2022-09-03T11:13:57;3.97;;;2.55;;
65759;SDS011;52496;51.082;5.066;2022-09-03T11:16:43;5.57;;;2.70;;
65759;SDS011;52496;51.082;5.066;2022-09-03T11:19:18;5.72;;;2.55;;
65759;SDS011;52496;51.082;5.066;2022-09-03T11:21:54;5.70;;;2.55;;
65759;SDS011;52496;51.082;5.066;2022-09-03T11:24:26;4.38;;;2.60;;
65759;SDS011;52496;51.082;5.066;2022-09-03T11:27:46;6.25;;;2.50;;
65759;SDS011;52496;51.082;5.066;2022-09-03T11:35:14;4.85;;;2.40;;
65759;SDS011;52496;51.082;5.066;2022-09-03T11:37:49;4.65;;;2.13;;
65759;SDS011;52496;51.082;5.066;2022-09-03T11:40:34;5.07;;;2.47;;
65759;SDS011;52496;51.082;5.066;2022-09-03T11:43:10;4.57;;;2.67;;
65759;SDS011;52496;51.082;5.066;2022-09-03T11:45:44;4.97;;;2.58;;
65759;SDS011;52496;51.082;5.066;2022-09-03T11:48:27;4.78;;;2.80;;
65759;SDS011;52496;51.082;5.066;2022-09-03T11:51:16;5.35;;;2.72;;
65759;SDS011;52496;51.082;5.066;2022-09-03T11:53:59;5.97;;;2.60;;
65759;SDS011;52496;51.082;5.066;2022-09-03T11:56:31;5.60;;;2.85;;
65759;SDS011;52496;51.082;5.066;2022-09-03T12:01:52;4.63;;;2.85;;
65759;SDS011;52496;51.082;5.066;2022-09-03T12:04:50;4.28;;;2.65;;
65759;SDS011;52496;51.082;5.066;2022-09-03T12:07:46;4.43;;;2.42;;
65759;SDS011;52496;51.082;5.066;2022-09-03T12:13:15;4.03;;;2.30;;
65759;SDS011;52496;51.082;5.066;2022-09-03T12:22:00;4.85;;;2.60;;
65759;SDS011;52496;51.082;5.066;2022-09-03T12:24:34;6.45;;;2.72;;
65759;SDS011;52496;51.082;5.066;2022-09-03T12:27:06;4.95;;;2.55;;
65759;SDS011;52496;51.082;5.066;2022-09-03T12:29:51;9.45;;;2.60;;
65759;SDS011;52496;51.082;5.066;2022-09-03T12:32:30;6.53;;;2.80;;
65759;SDS011;52496;51.082;5.066;2022-09-03T12:35:13;6.13;;;2.75;;
65759;SDS011;52496;51.082;5.066;2022-09-03T12:37:51;4.57;;;2.80;;
65759;SDS011;52496;51.082;5.066;2022-09-03T12:40:23;5.50;;;2.63;;
65759;SDS011;52496;51.082;5.066;2022-09-03T12:43:25;4.57;;;2.83;;
65759;SDS011;52496;51.082;5.066;2022-09-03T12:45:49;4.00;;;2.42;;
65759;SDS011;52496;51.082;5.066;2022-09-03T12:48:20;6.25;;;3.08;;
65759;SDS011;52496;51.082;5.066;2022-09-03T12:50:59;5.55;;;2.60;;
65759;SDS011;52496;51.082;5.066;2022-09-03T12:53:32;5.80;;;3.00;;
65759;SDS011;52496;51.082;5.066;2022-09-03T12:56:03;4.40;;;2.72;;
65759;SDS011;52496;51.082;5.066;2022-09-03T12:58:53;5.32;;;2.70;;
65759;SDS011;52496;51.082;5.066;2022-09-03T13:01:29;4.32;;;2.72;;
65759;SDS011;52496;51.082;5.066;2022-09-03T13:04:07;5.07;;;2.83;;
65759;SDS011;52496;51.082;5.066;2022-09-03T13:09:20;5.07;;;2.70;;
65759;SDS011;52496;51.082;5.066;2022-09-03T13:11:53;5.95;;;2.90;;
65759;SDS011;52496;51.082;5.066;2022-09-03T13:14:27;4.72;;;2.80;;
65759;SDS011;52496;51.082;5.066;2022-09-03T13:17:04;6.10;;;2.60;;
65759;SDS011;52496;51.082;5.066;2022-09-03T13:19:55;5.13;;;2.67;;
65759;SDS011;52496;51.082;5.066;2022-09-03T13:31:28;6.35;;;2.83;;
65759;SDS011;52496;51.082;5.066;2022-09-03T13:34:06;7.95;;;2.78;;
65759;SDS011;52496;51.082;5.066;2022-09-03T13:36:47;8.55;;;3.17;;
65759;SDS011;52496;51.082;5.066;2022-09-03T13:39:24;6.43;;;2.53;;
65759;SDS011;52496;51.082;5.066;2022-09-03T13:45:07;6.57;;;2.85;;
65759;SDS011;52496;51.082;5.066;2022-09-03T13:51:14;6.20;;;2.83;;
65759;SDS011;52496;51.082;5.066;2022-09-03T13:56:58;3.80;;;2.60;;
65759;SDS011;52496;51.082;5.066;2022-09-03T14:02:35;4.43;;;2.85;;
65759;SDS011;52496;51.082;5.066;2022-09-03T14:08:20;4.55;;;2.50;;
65759;SDS011;52496;51.082;5.066;2022-09-03T14:16:53;5.97;;;2.70;;
65759;SDS011;52496;51.082;5.066;2022-09-03T14:19:36;4.97;;;2.47;;
65759;SDS011;52496;51.082;5.066;2022-09-03T14:25:17;5.13;;;2.50;;
65759;SDS011;52496;51.082;5.066;2022-09-03T14:27:53;4.68;;;2.58;;
65759;SDS011;52496;51.082;5.066;2022-09-03T14:30:47;7.80;;;2.60;;
65759;SDS011;52496;51.082;5.066;2022-09-03T14:33:45;4.78;;;2.55;;
65759;SDS011;52496;51.082;5.066;2022-09-03T14:36:28;4.30;;;2.47;;
65759;SDS011;52496;51.082;5.066;2022-09-03T14:39:13;4.85;;;2.67;;
65759;SDS011;52496;51.082;5.066;2022-09-03T14:45:12;3.92;;;2.60;;
65759;SDS011;52496;51.082;5.066;2022-09-03T14:50:49;4.10;;;2.63;;
65759;SDS011;52496;51.082;5.066;2022-09-03T14:53:27;4.63;;;2.47;;
65759;SDS011;52496;51.082;5.066;2022-09-03T14:56:13;3.13;;;2.13;;
65759;SDS011;52496;51.082;5.066;2022-09-03T15:01:48;5.10;;;2.33;;
65759;SDS011;52496;51.082;5.066;2022-09-03T15:18:55;3.95;;;2.70;;
65759;SDS011;52496;51.082;5.066;2022-09-03T15:24:57;6.18;;;2.67;;
65759;SDS011;52496;51.082;5.066;2022-09-03T15:30:32;4.20;;;2.60;;
65759;SDS011;52496;51.082;5.066;2022-09-03T15:36:21;6.18;;;2.70;;
65759;SDS011;52496;51.082;5.066;2022-09-03T15:42:06;4.28;;;2.60;;
65759;SDS011;52496;51.082;5.066;2022-09-03T15:44:44;4.82;;;2.42;;
65759;SDS011;52496;51.082;5.066;2022-09-03T15:47:36;3.70;;;2.40;;
65759;SDS011;52496;51.082;5.066;2022-09-03T15:50:15;5.53;;;2.60;;
65759;SDS011;52496;51.082;5.066;2022-09-03T15:55:44;4.97;;;2.95;;
65759;SDS011;52496;51.082;5.066;2022-09-03T15:58:30;5.53;;;2.70;;
65759;SDS011;52496;51.082;5.066;2022-09-03T16:01:06;3.78;;;2.70;;
65759;SDS011;52496;51.082;5.066;2022-09-03T16:15:09;5.57;;;2.80;;
65759;SDS011;52496;51.082;5.066;2022-09-03T16:20:22;5.25;;;2.85;;
65759;SDS011;52496;51.082;5.066;2022-09-03T16:23:03;4.53;;;2.85;;
65759;SDS011;52496;51.082;5.066;2022-09-03T16:26:00;5.65;;;2.90;;
65759;SDS011;52496;51.082;5.066;2022-09-03T16:28:46;4.32;;;2.65;;
65759;SDS011;52496;51.082;5.066;2022-09-03T16:42:33;5.63;;;3.00;;
65759;SDS011;52496;51.082;5.066;2022-09-03T16:48:08;6.55;;;3.15;;
65759;SDS011;52496;51.082;5.066;2022-09-03T16:53:37;4.82;;;3.08;;
65759;SDS011;52496;51.082;5.066;2022-09-03T17:02:09;6.60;;;3.53;;
65759;SDS011;52496;51.082;5.066;2022-09-03T17:05:36;8.07;;;3.20;;
65759;SDS011;52496;51.082;5.066;2022-09-03T17:10:45;7.13;;;2.95;;
65759;SDS011;52496;51.082;5.066;2022-09-03T17:19:21;7.05;;;3.67;;
65759;SDS011;52496;51.082;5.066;2022-09-03T17:30:14;5.97;;;3.08;;
65759;SDS011;52496;51.082;5.066;2022-09-03T17:33:10;8.00;;;3.33;;
65759;SDS011;52496;51.082;5.066;2022-09-03T17:47:47;6.72;;;3.28;;
65759;SDS011;52496;51.082;5.066;2022-09-03T17:50:51;6.43;;;3.50;;
65759;SDS011;52496;51.082;5.066;2022-09-03T17:56:26;5.95;;;3.75;;
65759;SDS011;52496;51.082;5.066;2022-09-03T17:59:14;5.55;;;3.55;;
65759;SDS011;52496;51.082;5.066;2022-09-03T18:02:09;7.57;;;3.67;;
65759;SDS011;52496;51.082;5.066;2022-09-03T18:04:56;5.47;;;3.42;;
65759;SDS011;52496;51.082;5.066;2022-09-03T18:11:17;5.18;;;3.42;;
65759;SDS011;52496;51.082;5.066;2022-09-03T18:16:32;5.43;;;3.80;;
65759;SDS011;52496;51.082;5.066;2022-09-03T18:19:58;6.70;;;3.50;;
65759;SDS011;52496;51.082;5.066;2022-09-03T18:22:46;5.30;;;3.35;;
65759;SDS011;52496;51.082;5.066;2022-09-03T18:25:39;5.65;;;3.83;;
65759;SDS011;52496;51.082;5.066;2022-09-03T18:28:44;5.25;;;3.78;;
65759;SDS011;52496;51.082;5.066;2022-09-03T18:31:37;7.85;;;3.72;;
65759;SDS011;52496;51.082;5.066;2022-09-03T18:34:30;4.97;;;3.60;;
65759;SDS011;52496;51.082;5.066;2022-09-03T18:37:23;7.50;;;3.70;;
65759;SDS011;52496;51.082;5.066;2022-09-03T18:40:15;8.27;;;3.67;;
65759;SDS011;52496;51.082;5.066;2022-09-03T18:46:35;6.97;;;3.70;;
65759;SDS011;52496;51.082;5.066;2022-09-03T18:50:03;4.80;;;3.25;;
65759;SDS011;52496;51.082;5.066;2022-09-03T18:53:01;6.85;;;3.75;;
65759;SDS011;52496;51.082;5.066;2022-09-03T18:56:34;6.65;;;3.65;;
65759;SDS011;52496;51.082;5.066;2022-09-03T19:06:25;8.60;;;4.35;;
65759;SDS011;52496;51.082;5.066;2022-09-03T19:12:58;6.55;;;3.55;;
65759;SDS011;52496;51.082;5.066;2022-09-03T19:16:10;7.50;;;3.90;;
65759;SDS011;52496;51.082;5.066;2022-09-03T19:22:43;6.60;;;3.90;;
65759;SDS011;52496;51.082;5.066;2022-09-03T19:25:32;5.13;;;3.38;;
65759;SDS011;52496;51.082;5.066;2022-09-03T19:28:22;5.22;;;3.53;;
65759;SDS011;52496;51.082;5.066;2022-09-03T19:47:23;6.15;;;3.80;;
65759;SDS011;52496;51.082;5.066;2022-09-03T19:50:20;8.13;;;4.47;;
65759;SDS011;52496;51.082;5.066;2022-09-03T19:53:12;7.43;;;4.57;;
65759;SDS011;52496;51.082;5.066;2022-09-03T19:56:10;5.75;;;3.95;;
65759;SDS011;52496;51.082;5.066;2022-09-03T19:59:09;9.30;;;4.20;;
65759;SDS011;52496;51.082;5.066;2022-09-03T20:02:00;7.85;;;4.20;;
65759;SDS011;52496;51.082;5.066;2022-09-03T20:04:50;7.20;;;4.32;;
65759;SDS011;52496;51.082;5.066;2022-09-03T20:07:46;7.95;;;4.43;;
65759;SDS011;52496;51.082;5.066;2022-09-03T20:10:40;5.45;;;3.72;;
65759;SDS011;52496;51.082;5.066;2022-09-03T20:13:14;8.63;;;4.20;;
65759;SDS011;52496;51.082;5.066;2022-09-03T20:18:26;8.05;;;4.28;;
65759;SDS011;52496;51.082;5.066;2022-09-03T20:23:53;7.63;;;4.18;;
65759;SDS011;52496;51.082;5.066;2022-09-03T20:34:50;5.65;;;3.95;;
65759;SDS011;52496;51.082;5.066;2022-09-03T20:40:55;7.90;;;4.20;;
65759;SDS011;52496;51.082;5.066;2022-09-03T20:46:24;5.43;;;3.75;;
65759;SDS011;52496;51.082;5.066;2022-09-03T20:49:18;6.32;;;4.15;;
65759;SDS011;52496;51.082;5.066;2022-09-03T20:51:56;7.50;;;4.32;;
65759;SDS011;52496;51.082;5.066;2022-09-03T20:57:36;9.23;;;4.60;;
65759;SDS011;52496;51.082;5.066;2022-09-03T21:00:12;7.50;;;4.50;;
65759;SDS011;52496;51.082;5.066;2022-09-03T21:12:02;6.28;;;4.40;;
65759;SDS011;52496;51.082;5.066;2022-09-03T21:17:37;7.18;;;4.57;;
65759;SDS011;52496;51.082;5.066;2022-09-03T21:23:54;7.32;;;4.68;;
65759;SDS011;52496;51.082;5.066;2022-09-03T21:26:46;6.72;;;4.22;;
65759;SDS011;52496;51.082;5.066;2022-09-03T21:32:57;8.77;;;5.05;;
65759;SDS011;52496;51.082;5.066;2022-09-03T21:37:54;8.02;;;4.85;;
65759;SDS011;52496;51.082;5.066;2022-09-03T21:40:36;7.03;;;4.43;;
65759;SDS011;52496;51.082;5.066;2022-09-03T21:48:39;8.00;;;5.05;;
65759;SDS011;52496;51.082;5.066;2022-09-03T21:51:17;9.27;;;4.50;;
65759;SDS011;52496;51.082;5.066;2022-09-03T21:54:17;8.27;;;5.03;;